sensor_id;sensor_type;location;lat;lon;timestamp;P1;durP1;ratioP1;P2;durP2;ratioP2
3991;SDS011;2010;48.194;16.394;2023-06-22T00:01:40;11.80;;;7.30;;
3991;SDS011;2010;48.194;16.394;2023-06-22T00:04:11;13.30;;;6.90;;
3991;SDS011;2010;48.194;16.394;2023-06-22T00:06:46;19.73;;;6.90;;
3991;SDS011;2010;48.194;16.394;2023-06-22T00:09:16;10.77;;;6.73;;
3991;SDS011;2010;48.194;16.394;2023-06-22T00:11:45;20.93;;;7.13;;
3991;SDS011;2010;48.194;16.394;2023-06-22T00:14:14;14.00;;;6.83;;
3991;SDS011;2010;48.194;16.394;2023-06-22T00:16:45;10.90;;;6.30;;
3991;SDS011;2010;48.194;16.394;2023-06-22T00:19:16;13.70;;;6.10;;
3991;SDS011;2010;48.194;16.394;2023-06-22T00:21:52;12.40;;;6.10;;
3991;SDS011;2010;48.194;16.394;2023-06-22T00:24:23;20.57;;;6.97;;
3991;SDS011;2010;48.194;16.394;2023-06-22T00:26:53;12.20;;;6.87;;
3991;SDS011;2010;48.194;16.394;2023-06-22T00:29:28;20.03;;;7.17;;
3991;SDS011;2010;48.194;16.394;2023-06-22T00:31:58;15.77;;;6.63;;
3991;SDS011;2010;48.194;16.394;2023-06-22T00:34:35;11.30;;;6.17;;
3991;SDS011;2010;48.194;16.394;2023-06-22T00:37:07;15.90;;;7.23;;
3991;SDS011;2010;48.194;16.394;2023-06-22T00:39:39;13.73;;;6.10;;
3991;SDS011;2010;48.194;16.394;2023-06-22T00:42:08;16.60;;;6.67;;
3991;SDS011;2010;48.194;16.394;2023-06-22T00:44:42;13.03;;;6.23;;
3991;SDS011;2010;48.194;16.394;2023-06-22T00:47:17;14.13;;;5.40;;
3991;SDS011;2010;48.194;16.394;2023-06-22T00:49:48;15.00;;;7.10;;
3991;SDS011;2010;48.194;16.394;2023-06-22T00:52:24;8.67;;;6.20;;
3991;SDS011;2010;48.194;16.394;2023-06-22T00:54:59;11.93;;;5.97;;
3991;SDS011;2010;48.194;16.394;2023-06-22T00:57:37;15.10;;;6.53;;
3991;SDS011;2010;48.194;16.394;2023-06-22T01:00:11;11.30;;;5.87;;
3991;SDS011;2010;48.194;16.394;2023-06-22T01:03:01;11.03;;;6.10;;
3991;SDS011;2010;48.194;16.394;2023-06-22T01:05:38;7.67;;;6.07;;
3991;SDS011;2010;48.194;16.394;2023-06-22T01:08:22;9.50;;;5.43;;
3991;SDS011;2010;48.194;16.394;2023-06-22T01:11:08;10.37;;;5.63;;
3991;SDS011;2010;48.194;16.394;2023-06-22T01:13:48;13.77;;;5.47;;
3991;SDS011;2010;48.194;16.394;2023-06-22T01:16:23;12.20;;;5.90;;
3991;SDS011;2010;48.194;16.394;2023-06-22T01:22:00;14.43;;;6.17;;
3991;SDS011;2010;48.194;16.394;2023-06-22T01:24:37;9.73;;;5.57;;
3991;SDS011;2010;48.194;16.394;2023-06-22T01:30:10;8.73;;;5.50;;
3991;SDS011;2010;48.194;16.394;2023-06-22T01:32:47;22.60;;;6.13;;
3991;SDS011;2010;48.194;16.394;2023-06-22T01:35:19;9.07;;;5.57;;
3991;SDS011;2010;48.194;16.394;2023-06-22T01:37:51;14.53;;;6.17;;
3991;SDS011;2010;48.194;16.394;2023-06-22T01:40:23;7.67;;;5.50;;
3991;SDS011;2010;48.194;16.394;2023-06-22T01:42:54;15.90;;;6.73;;
3991;SDS011;2010;48.194;16.394;2023-06-22T01:45:30;10.00;;;6.07;;
3991;SDS011;2010;48.194;16.394;2023-06-22T01:48:01;16.80;;;8.43;;
3991;SDS011;2010;48.194;16.394;2023-06-22T01:50:35;11.37;;;7.80;;
3991;SDS011;2010;48.194;16.394;2023-06-22T01:53:07;14.97;;;5.60;;
3991;SDS011;2010;48.194;16.394;2023-06-22T01:55:36;12.03;;;5.83;;
3991;SDS011;2010;48.194;16.394;2023-06-22T01:58:15;11.00;;;5.70;;
3991;SDS011;2010;48.194;16.394;2023-06-22T02:00:48;9.43;;;5.20;;
3991;SDS011;2010;48.194;16.394;2023-06-22T02:03:20;9.00;;;5.20;;
3991;SDS011;2010;48.194;16.394;2023-06-22T02:05:53;10.50;;;5.10;;
3991;SDS011;2010;48.194;16.394;2023-06-22T02:08:27;10.70;;;5.30;;
3991;SDS011;2010;48.194;16.394;2023-06-22T02:11:01;8.73;;;5.27;;
3991;SDS011;2010;48.194;16.394;2023-06-22T02:13:31;7.27;;;5.10;;
3991;SDS011;2010;48.194;16.394;2023-06-22T02:16:07;7.50;;;5.63;;
3991;SDS011;2010;48.194;16.394;2023-06-22T02:18:46;10.60;;;6.30;;
3991;SDS011;2010;48.194;16.394;2023-06-22T02:21:20;7.57;;;4.63;;
3991;SDS011;2010;48.194;16.394;2023-06-22T02:23:51;10.40;;;5.30;;
3991;SDS011;2010;48.194;16.394;2023-06-22T02:26:25;13.17;;;5.37;;
3991;SDS011;2010;48.194;16.394;2023-06-22T02:29:05;7.43;;;5.00;;
3991;SDS011;2010;48.194;16.394;2023-06-22T02:31:37;9.97;;;5.63;;
3991;SDS011;2010;48.194;16.394;2023-06-22T02:34:07;10.60;;;5.77;;
3991;SDS011;2010;48.194;16.394;2023-06-22T02:36:47;8.10;;;5.00;;
3991;SDS011;2010;48.194;16.394;2023-06-22T02:39:19;10.67;;;5.70;;
3991;SDS011;2010;48.194;16.394;2023-06-22T02:41:58;9.83;;;5.20;;
3991;SDS011;2010;48.194;16.394;2023-06-22T02:44:29;9.50;;;5.30;;
3991;SDS011;2010;48.194;16.394;2023-06-22T02:47:10;7.70;;;4.70;;
3991;SDS011;2010;48.194;16.394;2023-06-22T02:49:41;7.50;;;4.97;;
3991;SDS011;2010;48.194;16.394;2023-06-22T02:52:14;11.50;;;5.67;;
3991;SDS011;2010;48.194;16.394;2023-06-22T02:54:43;9.57;;;5.60;;
3991;SDS011;2010;48.194;16.394;2023-06-22T02:57:15;11.70;;;5.90;;
3991;SDS011;2010;48.194;16.394;2023-06-22T02:59:46;14.83;;;5.50;;
3991;SDS011;2010;48.194;16.394;2023-06-22T03:02:26;9.00;;;5.33;;
3991;SDS011;2010;48.194;16.394;2023-06-22T03:04:54;7.67;;;5.53;;
3991;SDS011;2010;48.194;16.394;2023-06-22T03:07:26;5.67;;;4.93;;
3991;SDS011;2010;48.194;16.394;2023-06-22T03:10:00;14.37;;;6.00;;
3991;SDS011;2010;48.194;16.394;2023-06-22T03:12:28;15.30;;;6.03;;
3991;SDS011;2010;48.194;16.394;2023-06-22T03:15:00;13.20;;;5.60;;
3991;SDS011;2010;48.194;16.394;2023-06-22T03:17:35;6.00;;;4.97;;
3991;SDS011;2010;48.194;16.394;2023-06-22T03:20:09;10.00;;;5.37;;
3991;SDS011;2010;48.194;16.394;2023-06-22T03:22:41;10.80;;;5.67;;
3991;SDS011;2010;48.194;16.394;2023-06-22T03:25:15;7.13;;;6.03;;
3991;SDS011;2010;48.194;16.394;2023-06-22T03:27:50;8.03;;;5.50;;
3991;SDS011;2010;48.194;16.394;2023-06-22T03:30:23;13.00;;;5.77;;
3991;SDS011;2010;48.194;16.394;2023-06-22T03:33:07;13.47;;;6.73;;
3991;SDS011;2010;48.194;16.394;2023-06-22T03:35:37;11.50;;;6.13;;
3991;SDS011;2010;48.194;16.394;2023-06-22T03:38:05;12.43;;;6.37;;
3991;SDS011;2010;48.194;16.394;2023-06-22T03:40:36;11.50;;;6.03;;
3991;SDS011;2010;48.194;16.394;2023-06-22T03:43:07;11.57;;;6.40;;
3991;SDS011;2010;48.194;16.394;2023-06-22T03:45:39;10.23;;;5.70;;
3991;SDS011;2010;48.194;16.394;2023-06-22T03:48:13;13.57;;;5.40;;
3991;SDS011;2010;48.194;16.394;2023-06-22T03:50:45;9.33;;;5.63;;
3991;SDS011;2010;48.194;16.394;2023-06-22T03:53:16;20.10;;;5.27;;
3991;SDS011;2010;48.194;16.394;2023-06-22T03:55:54;20.40;;;5.60;;
3991;SDS011;2010;48.194;16.394;2023-06-22T03:58:23;8.30;;;6.13;;
3991;SDS011;2010;48.194;16.394;2023-06-22T04:01:00;12.60;;;5.63;;
3991;SDS011;2010;48.194;16.394;2023-06-22T04:03:39;13.13;;;6.17;;
3991;SDS011;2010;48.194;16.394;2023-06-22T04:06:11;13.60;;;6.13;;
3991;SDS011;2010;48.194;16.394;2023-06-22T04:08:40;8.30;;;5.90;;
3991;SDS011;2010;48.194;16.394;2023-06-22T04:11:10;21.30;;;6.87;;
3991;SDS011;2010;48.194;16.394;2023-06-22T04:13:47;9.20;;;6.33;;
3991;SDS011;2010;48.194;16.394;2023-06-22T04:16:19;9.87;;;5.93;;
3991;SDS011;2010;48.194;16.394;2023-06-22T04:19:08;11.60;;;6.10;;
3991;SDS011;2010;48.194;16.394;2023-06-22T04:21:44;10.73;;;6.90;;
3991;SDS011;2010;48.194;16.394;2023-06-22T04:24:15;13.60;;;5.67;;
3991;SDS011;2010;48.194;16.394;2023-06-22T04:26:47;12.33;;;6.50;;
3991;SDS011;2010;48.194;16.394;2023-06-22T04:29:20;10.77;;;6.27;;
3991;SDS011;2010;48.194;16.394;2023-06-22T04:31:57;8.27;;;5.07;;
3991;SDS011;2010;48.194;16.394;2023-06-22T04:34:34;16.40;;;6.03;;
3991;SDS011;2010;48.194;16.394;2023-06-22T04:37:04;9.23;;;5.90;;
3991;SDS011;2010;48.194;16.394;2023-06-22T04:39:33;8.67;;;5.70;;
3991;SDS011;2010;48.194;16.394;2023-06-22T04:42:04;8.97;;;5.20;;
3991;SDS011;2010;48.194;16.394;2023-06-22T04:44:40;8.37;;;5.20;;
3991;SDS011;2010;48.194;16.394;2023-06-22T04:47:10;14.47;;;5.90;;
3991;SDS011;2010;48.194;16.394;2023-06-22T04:49:44;10.20;;;6.00;;
3991;SDS011;2010;48.194;16.394;2023-06-22T04:52:16;10.37;;;5.63;;
3991;SDS011;2010;48.194;16.394;2023-06-22T04:54:48;10.13;;;5.70;;
3991;SDS011;2010;48.194;16.394;2023-06-22T04:57:23;10.33;;;5.33;;
3991;SDS011;2010;48.194;16.394;2023-06-22T04:59:59;12.20;;;5.47;;
3991;SDS011;2010;48.194;16.394;2023-06-22T05:02:39;9.87;;;5.40;;
3991;SDS011;2010;48.194;16.394;2023-06-22T05:05:12;11.43;;;5.20;;
3991;SDS011;2010;48.194;16.394;2023-06-22T05:07:43;8.93;;;5.40;;
3991;SDS011;2010;48.194;16.394;2023-06-22T05:10:19;8.57;;;5.20;;
3991;SDS011;2010;48.194;16.394;2023-06-22T05:12:51;12.30;;;6.50;;
3991;SDS011;2010;48.194;16.394;2023-06-22T05:15:20;8.63;;;5.70;;
3991;SDS011;2010;48.194;16.394;2023-06-22T05:17:55;9.90;;;6.00;;
3991;SDS011;2010;48.194;16.394;2023-06-22T05:20:29;12.53;;;6.07;;
3991;SDS011;2010;48.194;16.394;2023-06-22T05:23:13;17.30;;;5.90;;
3991;SDS011;2010;48.194;16.394;2023-06-22T05:25:44;13.07;;;5.70;;
3991;SDS011;2010;48.194;16.394;2023-06-22T05:28:14;10.00;;;6.00;;
3991;SDS011;2010;48.194;16.394;2023-06-22T05:30:50;11.20;;;5.33;;
3991;SDS011;2010;48.194;16.394;2023-06-22T05:33:19;12.73;;;5.90;;
3991;SDS011;2010;48.194;16.394;2023-06-22T05:35:51;13.83;;;5.90;;
3991;SDS011;2010;48.194;16.394;2023-06-22T05:38:20;16.10;;;6.90;;
3991;SDS011;2010;48.194;16.394;2023-06-22T05:40:49;15.27;;;7.17;;
3991;SDS011;2010;48.194;16.394;2023-06-22T05:43:20;17.13;;;8.13;;
3991;SDS011;2010;48.194;16.394;2023-06-22T05:45:54;14.17;;;7.13;;
3991;SDS011;2010;48.194;16.394;2023-06-22T05:48:32;12.97;;;6.60;;
3991;SDS011;2010;48.194;16.394;2023-06-22T05:51:09;19.33;;;7.83;;
3991;SDS011;2010;48.194;16.394;2023-06-22T05:53:44;11.90;;;6.70;;
3991;SDS011;2010;48.194;16.394;2023-06-22T05:56:16;18.30;;;7.50;;
3991;SDS011;2010;48.194;16.394;2023-06-22T05:58:48;14.40;;;6.60;;
3991;SDS011;2010;48.194;16.394;2023-06-22T06:01:19;13.43;;;6.80;;
3991;SDS011;2010;48.194;16.394;2023-06-22T06:03:49;14.87;;;6.40;;
3991;SDS011;2010;48.194;16.394;2023-06-22T06:06:23;14.83;;;7.40;;
3991;SDS011;2010;48.194;16.394;2023-06-22T06:08:55;15.73;;;8.43;;
3991;SDS011;2010;48.194;16.394;2023-06-22T06:11:27;14.67;;;9.03;;
3991;SDS011;2010;48.194;16.394;2023-06-22T06:13:58;18.20;;;9.37;;
3991;SDS011;2010;48.194;16.394;2023-06-22T06:16:27;16.50;;;9.37;;
3991;SDS011;2010;48.194;16.394;2023-06-22T06:19:00;22.83;;;9.23;;
3991;SDS011;2010;48.194;16.394;2023-06-22T06:21:43;18.73;;;9.23;;
3991;SDS011;2010;48.194;16.394;2023-06-22T06:24:12;19.90;;;10.33;;
3991;SDS011;2010;48.194;16.394;2023-06-22T06:26:47;24.50;;;11.00;;
3991;SDS011;2010;48.194;16.394;2023-06-22T06:29:18;18.30;;;11.97;;
3991;SDS011;2010;48.194;16.394;2023-06-22T06:31:50;20.17;;;11.90;;
3991;SDS011;2010;48.194;16.394;2023-06-22T06:34:23;20.07;;;11.73;;
3991;SDS011;2010;48.194;16.394;2023-06-22T06:37:07;19.07;;;12.40;;
3991;SDS011;2010;48.194;16.394;2023-06-22T06:39:45;18.17;;;13.00;;
3991;SDS011;2010;48.194;16.394;2023-06-22T06:42:16;23.13;;;14.23;;
3991;SDS011;2010;48.194;16.394;2023-06-22T06:44:47;21.90;;;12.40;;
3991;SDS011;2010;48.194;16.394;2023-06-22T06:47:21;23.60;;;14.37;;
3991;SDS011;2010;48.194;16.394;2023-06-22T06:49:49;20.23;;;13.00;;
3991;SDS011;2010;48.194;16.394;2023-06-22T06:52:20;21.43;;;14.43;;
3991;SDS011;2010;48.194;16.394;2023-06-22T06:54:56;22.90;;;13.77;;
3991;SDS011;2010;48.194;16.394;2023-06-22T06:57:26;25.50;;;14.27;;
3991;SDS011;2010;48.194;16.394;2023-06-22T06:59:57;17.73;;;13.73;;
3991;SDS011;2010;48.194;16.394;2023-06-22T07:02:27;24.53;;;13.57;;
3991;SDS011;2010;48.194;16.394;2023-06-22T07:04:56;18.53;;;12.90;;
3991;SDS011;2010;48.194;16.394;2023-06-22T07:07:39;19.80;;;14.90;;
3991;SDS011;2010;48.194;16.394;2023-06-22T07:10:10;19.87;;;13.50;;
3991;SDS011;2010;48.194;16.394;2023-06-22T07:12:43;20.80;;;12.67;;
3991;SDS011;2010;48.194;16.394;2023-06-22T07:15:19;26.20;;;13.03;;
3991;SDS011;2010;48.194;16.394;2023-06-22T07:17:54;22.27;;;13.80;;
3991;SDS011;2010;48.194;16.394;2023-06-22T07:20:25;19.97;;;12.23;;
3991;SDS011;2010;48.194;16.394;2023-06-22T07:23:10;14.20;;;10.97;;
3991;SDS011;2010;48.194;16.394;2023-06-22T07:25:43;14.23;;;11.53;;
3991;SDS011;2010;48.194;16.394;2023-06-22T07:28:15;16.13;;;12.10;;
3991;SDS011;2010;48.194;16.394;2023-06-22T07:30:44;14.40;;;11.73;;
3991;SDS011;2010;48.194;16.394;2023-06-22T07:33:19;14.90;;;10.90;;
3991;SDS011;2010;48.194;16.394;2023-06-22T07:35:49;14.10;;;11.93;;
3991;SDS011;2010;48.194;16.394;2023-06-22T07:38:23;13.40;;;10.73;;
3991;SDS011;2010;48.194;16.394;2023-06-22T07:40:51;20.07;;;11.23;;
3991;SDS011;2010;48.194;16.394;2023-06-22T07:43:22;16.63;;;10.30;;
3991;SDS011;2010;48.194;16.394;2023-06-22T07:45:53;18.57;;;11.17;;
3991;SDS011;2010;48.194;16.394;2023-06-22T07:48:25;15.07;;;10.33;;
3991;SDS011;2010;48.194;16.394;2023-06-22T07:50:54;16.40;;;10.70;;
3991;SDS011;2010;48.194;16.394;2023-06-22T07:53:37;17.93;;;10.20;;
3991;SDS011;2010;48.194;16.394;2023-06-22T07:56:09;19.70;;;11.50;;
3991;SDS011;2010;48.194;16.394;2023-06-22T07:58:48;20.33;;;11.87;;
3991;SDS011;2010;48.194;16.394;2023-06-22T08:01:17;17.40;;;11.20;;
3991;SDS011;2010;48.194;16.394;2023-06-22T08:03:47;14.97;;;11.47;;
3991;SDS011;2010;48.194;16.394;2023-06-22T08:06:18;25.63;;;13.10;;
3991;SDS011;2010;48.194;16.394;2023-06-22T08:08:55;18.60;;;11.23;;
3991;SDS011;2010;48.194;16.394;2023-06-22T08:11:28;16.33;;;10.90;;
3991;SDS011;2010;48.194;16.394;2023-06-22T08:14:04;13.80;;;10.27;;
3991;SDS011;2010;48.194;16.394;2023-06-22T08:16:33;18.30;;;10.10;;
3991;SDS011;2010;48.194;16.394;2023-06-22T08:19:03;23.63;;;11.00;;
3991;SDS011;2010;48.194;16.394;2023-06-22T08:21:31;14.37;;;11.27;;
3991;SDS011;2010;48.194;16.394;2023-06-22T08:24:02;17.60;;;10.87;;
3991;SDS011;2010;48.194;16.394;2023-06-22T08:26:38;15.07;;;10.43;;
3991;SDS011;2010;48.194;16.394;2023-06-22T08:29:14;14.13;;;11.13;;
3991;SDS011;2010;48.194;16.394;2023-06-22T08:31:45;19.10;;;11.30;;
3991;SDS011;2010;48.194;16.394;2023-06-22T08:34:27;21.60;;;11.60;;
3991;SDS011;2010;48.194;16.394;2023-06-22T08:36:58;14.00;;;10.80;;
3991;SDS011;2010;48.194;16.394;2023-06-22T08:39:40;17.13;;;10.73;;
3991;SDS011;2010;48.194;16.394;2023-06-22T08:42:08;14.53;;;11.13;;
3991;SDS011;2010;48.194;16.394;2023-06-22T08:44:39;14.13;;;10.90;;
3991;SDS011;2010;48.194;16.394;2023-06-22T08:47:10;18.13;;;10.40;;
3991;SDS011;2010;48.194;16.394;2023-06-22T08:49:41;20.07;;;12.80;;
3991;SDS011;2010;48.194;16.394;2023-06-22T08:52:18;21.90;;;9.90;;
3991;SDS011;2010;48.194;16.394;2023-06-22T08:54:52;14.63;;;10.37;;
3991;SDS011;2010;48.194;16.394;2023-06-22T08:57:21;11.97;;;10.00;;
3991;SDS011;2010;48.194;16.394;2023-06-22T08:59:53;14.10;;;10.40;;
3991;SDS011;2010;48.194;16.394;2023-06-22T09:02:28;11.93;;;9.43;;
3991;SDS011;2010;48.194;16.394;2023-06-22T09:05:03;15.47;;;9.20;;
3991;SDS011;2010;48.194;16.394;2023-06-22T09:07:34;12.63;;;10.57;;
3991;SDS011;2010;48.194;16.394;2023-06-22T09:10:24;15.70;;;10.70;;
3991;SDS011;2010;48.194;16.394;2023-06-22T09:12:57;12.40;;;9.20;;
3991;SDS011;2010;48.194;16.394;2023-06-22T09:15:30;14.53;;;8.63;;
3991;SDS011;2010;48.194;16.394;2023-06-22T09:18:02;16.37;;;9.90;;
3991;SDS011;2010;48.194;16.394;2023-06-22T09:20:32;11.07;;;9.07;;
3991;SDS011;2010;48.194;16.394;2023-06-22T09:23:01;16.47;;;9.63;;
3991;SDS011;2010;48.194;16.394;2023-06-22T09:25:34;13.70;;;9.20;;
3991;SDS011;2010;48.194;16.394;2023-06-22T09:28:03;12.53;;;9.10;;
3991;SDS011;2010;48.194;16.394;2023-06-22T09:30:37;11.90;;;9.73;;
3991;SDS011;2010;48.194;16.394;2023-06-22T09:33:11;9.93;;;8.80;;
3991;SDS011;2010;48.194;16.394;2023-06-22T09:35:43;15.93;;;8.97;;
3991;SDS011;2010;48.194;16.394;2023-06-22T09:38:12;23.07;;;10.03;;
3991;SDS011;2010;48.194;16.394;2023-06-22T09:41:23;17.70;;;8.40;;
3991;SDS011;2010;48.194;16.394;2023-06-22T09:43:53;10.47;;;8.40;;
3991;SDS011;2010;48.194;16.394;2023-06-22T09:46:24;13.80;;;7.70;;
3991;SDS011;2010;48.194;16.394;2023-06-22T09:48:56;11.43;;;8.27;;
3991;SDS011;2010;48.194;16.394;2023-06-22T09:51:35;13.40;;;8.20;;
3991;SDS011;2010;48.194;16.394;2023-06-22T09:54:04;11.10;;;8.63;;
3991;SDS011;2010;48.194;16.394;2023-06-22T09:56:39;13.83;;;8.43;;
3991;SDS011;2010;48.194;16.394;2023-06-22T09:59:08;13.87;;;8.20;;
3991;SDS011;2010;48.194;16.394;2023-06-22T10:01:45;18.30;;;8.87;;
3991;SDS011;2010;48.194;16.394;2023-06-22T10:04:20;8.80;;;7.83;;
3991;SDS011;2010;48.194;16.394;2023-06-22T10:06:52;13.70;;;8.37;;
3991;SDS011;2010;48.194;16.394;2023-06-22T10:09:20;14.57;;;7.93;;
3991;SDS011;2010;48.194;16.394;2023-06-22T10:11:52;17.43;;;8.63;;
3991;SDS011;2010;48.194;16.394;2023-06-22T10:14:23;15.33;;;8.73;;
3991;SDS011;2010;48.194;16.394;2023-06-22T10:17:05;8.87;;;7.27;;
3991;SDS011;2010;48.194;16.394;2023-06-22T10:19:36;14.03;;;6.70;;
3991;SDS011;2010;48.194;16.394;2023-06-22T10:22:05;9.27;;;6.90;;
3991;SDS011;2010;48.194;16.394;2023-06-22T10:24:33;8.13;;;5.93;;
3991;SDS011;2010;48.194;16.394;2023-06-22T10:27:05;11.00;;;5.87;;
3991;SDS011;2010;48.194;16.394;2023-06-22T10:29:46;5.80;;;4.57;;
3991;SDS011;2010;48.194;16.394;2023-06-22T10:32:15;8.30;;;5.00;;
3991;SDS011;2010;48.194;16.394;2023-06-22T10:34:47;6.63;;;4.97;;
3991;SDS011;2010;48.194;16.394;2023-06-22T10:37:16;9.33;;;4.80;;
3991;SDS011;2010;48.194;16.394;2023-06-22T10:39:57;7.27;;;4.37;;
3991;SDS011;2010;48.194;16.394;2023-06-22T10:42:27;7.17;;;4.97;;
3991;SDS011;2010;48.194;16.394;2023-06-22T10:44:59;5.57;;;4.10;;
3991;SDS011;2010;48.194;16.394;2023-06-22T10:47:33;6.17;;;4.60;;
3991;SDS011;2010;48.194;16.394;2023-06-22T10:50:07;9.60;;;4.27;;
3991;SDS011;2010;48.194;16.394;2023-06-22T10:52:37;7.47;;;4.43;;
3991;SDS011;2010;48.194;16.394;2023-06-22T10:55:06;9.80;;;3.90;;
3991;SDS011;2010;48.194;16.394;2023-06-22T10:57:37;6.77;;;4.30;;
3991;SDS011;2010;48.194;16.394;2023-06-22T11:00:11;8.40;;;4.50;;
3991;SDS011;2010;48.194;16.394;2023-06-22T11:02:44;7.07;;;4.90;;
3991;SDS011;2010;48.194;16.394;2023-06-22T11:05:15;7.40;;;4.77;;
3991;SDS011;2010;48.194;16.394;2023-06-22T11:07:59;7.77;;;5.30;;
3991;SDS011;2010;48.194;16.394;2023-06-22T11:10:28;6.97;;;4.77;;
3991;SDS011;2010;48.194;16.394;2023-06-22T11:13:05;12.60;;;5.93;;
3991;SDS011;2010;48.194;16.394;2023-06-22T11:15:40;12.37;;;5.37;;
3991;SDS011;2010;48.194;16.394;2023-06-22T11:18:11;9.20;;;6.40;;
3991;SDS011;2010;48.194;16.394;2023-06-22T11:20:42;12.47;;;6.10;;
3991;SDS011;2010;48.194;16.394;2023-06-22T11:23:20;12.13;;;6.50;;
3991;SDS011;2010;48.194;16.394;2023-06-22T11:25:49;10.10;;;7.13;;
3991;SDS011;2010;48.194;16.394;2023-06-22T11:28:29;13.20;;;6.63;;
3991;SDS011;2010;48.194;16.394;2023-06-22T11:30:58;14.80;;;7.27;;
3991;SDS011;2010;48.194;16.394;2023-06-22T11:33:47;12.50;;;6.80;;
3991;SDS011;2010;48.194;16.394;2023-06-22T11:36:30;10.70;;;5.70;;
3991;SDS011;2010;48.194;16.394;2023-06-22T11:39:01;19.80;;;5.53;;
3991;SDS011;2010;48.194;16.394;2023-06-22T11:41:30;7.40;;;5.97;;
3991;SDS011;2010;48.194;16.394;2023-06-22T11:44:03;12.53;;;5.03;;
3991;SDS011;2010;48.194;16.394;2023-06-22T11:46:43;16.90;;;5.37;;
3991;SDS011;2010;48.194;16.394;2023-06-22T11:49:19;9.97;;;5.47;;
3991;SDS011;2010;48.194;16.394;2023-06-22T11:51:50;12.00;;;5.53;;
3991;SDS011;2010;48.194;16.394;2023-06-22T11:54:18;11.97;;;5.10;;
3991;SDS011;2010;48.194;16.394;2023-06-22T11:56:50;10.83;;;4.73;;
3991;SDS011;2010;48.194;16.394;2023-06-22T11:59:30;11.30;;;5.20;;
3991;SDS011;2010;48.194;16.394;2023-06-22T12:02:00;11.03;;;5.00;;
3991;SDS011;2010;48.194;16.394;2023-06-22T12:04:29;5.90;;;4.40;;
3991;SDS011;2010;48.194;16.394;2023-06-22T12:06:58;6.77;;;4.00;;
3991;SDS011;2010;48.194;16.394;2023-06-22T12:09:27;11.53;;;5.37;;
3991;SDS011;2010;48.194;16.394;2023-06-22T12:11:58;8.20;;;4.27;;
3991;SDS011;2010;48.194;16.394;2023-06-22T12:14:27;6.20;;;4.57;;
3991;SDS011;2010;48.194;16.394;2023-06-22T12:17:02;11.87;;;4.33;;
3991;SDS011;2010;48.194;16.394;2023-06-22T12:19:37;11.77;;;4.50;;
3991;SDS011;2010;48.194;16.394;2023-06-22T12:22:08;10.87;;;4.50;;
3991;SDS011;2010;48.194;16.394;2023-06-22T12:24:37;6.60;;;4.30;;
3991;SDS011;2010;48.194;16.394;2023-06-22T12:27:14;8.13;;;4.70;;
3991;SDS011;2010;48.194;16.394;2023-06-22T12:29:46;8.67;;;4.90;;
3991;SDS011;2010;48.194;16.394;2023-06-22T12:32:19;10.67;;;4.57;;
3991;SDS011;2010;48.194;16.394;2023-06-22T12:34:49;11.47;;;4.50;;
3991;SDS011;2010;48.194;16.394;2023-06-22T12:37:26;9.67;;;4.90;;
3991;SDS011;2010;48.194;16.394;2023-06-22T12:39:56;9.70;;;4.60;;
3991;SDS011;2010;48.194;16.394;2023-06-22T12:42:27;9.10;;;4.70;;
3991;SDS011;2010;48.194;16.394;2023-06-22T12:44:56;5.80;;;4.57;;
3991;SDS011;2010;48.194;16.394;2023-06-22T12:47:43;18.40;;;4.90;;
3991;SDS011;2010;48.194;16.394;2023-06-22T12:50:15;8.17;;;4.77;;
3991;SDS011;2010;48.194;16.394;2023-06-22T12:52:46;7.07;;;4.37;;
3991;SDS011;2010;48.194;16.394;2023-06-22T12:55:23;8.53;;;4.30;;
3991;SDS011;2010;48.194;16.394;2023-06-22T12:58:01;10.17;;;5.37;;
3991;SDS011;2010;48.194;16.394;2023-06-22T13:00:29;9.53;;;5.23;;
3991;SDS011;2010;48.194;16.394;2023-06-22T13:03:00;7.00;;;5.00;;
3991;SDS011;2010;48.194;16.394;2023-06-22T13:05:34;8.57;;;4.70;;
3991;SDS011;2010;48.194;16.394;2023-06-22T13:08:04;10.93;;;5.40;;
3991;SDS011;2010;48.194;16.394;2023-06-22T13:10:40;15.40;;;5.50;;
3991;SDS011;2010;48.194;16.394;2023-06-22T13:13:11;13.67;;;5.67;;
3991;SDS011;2010;48.194;16.394;2023-06-22T13:15:48;11.60;;;5.10;;
3991;SDS011;2010;48.194;16.394;2023-06-22T13:18:23;11.30;;;5.50;;
3991;SDS011;2010;48.194;16.394;2023-06-22T13:20:54;12.03;;;5.10;;
3991;SDS011;2010;48.194;16.394;2023-06-22T13:23:32;13.23;;;5.83;;
3991;SDS011;2010;48.194;16.394;2023-06-22T13:26:04;9.83;;;5.70;;
3991;SDS011;2010;48.194;16.394;2023-06-22T13:28:33;8.73;;;6.63;;
3991;SDS011;2010;48.194;16.394;2023-06-22T13:31:04;9.13;;;5.80;;
3991;SDS011;2010;48.194;16.394;2023-06-22T13:33:42;7.93;;;5.27;;
3991;SDS011;2010;48.194;16.394;2023-06-22T13:36:21;10.67;;;5.37;;
3991;SDS011;2010;48.194;16.394;2023-06-22T13:38:53;12.10;;;6.30;;
3991;SDS011;2010;48.194;16.394;2023-06-22T13:41:23;13.33;;;5.60;;
3991;SDS011;2010;48.194;16.394;2023-06-22T13:43:56;12.50;;;5.60;;
3991;SDS011;2010;48.194;16.394;2023-06-22T13:46:25;13.67;;;5.00;;
3991;SDS011;2010;48.194;16.394;2023-06-22T13:48:59;12.13;;;5.60;;
3991;SDS011;2010;48.194;16.394;2023-06-22T13:51:31;9.77;;;6.03;;
3991;SDS011;2010;48.194;16.394;2023-06-22T13:54:04;10.20;;;5.50;;
3991;SDS011;2010;48.194;16.394;2023-06-22T13:56:51;8.37;;;5.30;;
3991;SDS011;2010;48.194;16.394;2023-06-22T13:59:20;8.83;;;5.37;;
3991;SDS011;2010;48.194;16.394;2023-06-22T14:01:54;9.33;;;5.60;;
3991;SDS011;2010;48.194;16.394;2023-06-22T14:04:26;9.27;;;4.87;;
3991;SDS011;2010;48.194;16.394;2023-06-22T14:07:05;10.27;;;5.30;;
3991;SDS011;2010;48.194;16.394;2023-06-22T14:09:34;10.80;;;5.13;;
3991;SDS011;2010;48.194;16.394;2023-06-22T14:12:04;8.07;;;5.47;;
3991;SDS011;2010;48.194;16.394;2023-06-22T14:14:46;10.63;;;5.37;;
3991;SDS011;2010;48.194;16.394;2023-06-22T14:17:23;12.73;;;6.00;;
3991;SDS011;2010;48.194;16.394;2023-06-22T14:20:07;10.17;;;5.43;;
3991;SDS011;2010;48.194;16.394;2023-06-22T14:22:40;5.80;;;5.10;;
3991;SDS011;2010;48.194;16.394;2023-06-22T14:25:12;6.43;;;5.00;;
3991;SDS011;2010;48.194;16.394;2023-06-22T14:27:47;9.07;;;5.30;;
3991;SDS011;2010;48.194;16.394;2023-06-22T14:30:18;6.83;;;4.80;;
3991;SDS011;2010;48.194;16.394;2023-06-22T14:32:50;10.10;;;5.57;;
3991;SDS011;2010;48.194;16.394;2023-06-22T14:35:30;12.40;;;6.03;;
3991;SDS011;2010;48.194;16.394;2023-06-22T14:37:59;9.83;;;5.13;;
3991;SDS011;2010;48.194;16.394;2023-06-22T14:40:27;10.03;;;5.83;;
3991;SDS011;2010;48.194;16.394;2023-06-22T14:43:16;7.80;;;5.30;;
3991;SDS011;2010;48.194;16.394;2023-06-22T14:45:47;8.30;;;5.20;;
3991;SDS011;2010;48.194;16.394;2023-06-22T14:48:19;9.00;;;5.80;;
3991;SDS011;2010;48.194;16.394;2023-06-22T14:51:01;7.40;;;5.60;;
3991;SDS011;2010;48.194;16.394;2023-06-22T14:53:32;11.43;;;5.93;;
3991;SDS011;2010;48.194;16.394;2023-06-22T14:56:04;5.70;;;5.20;;
3991;SDS011;2010;48.194;16.394;2023-06-22T14:58:35;7.60;;;5.97;;
3991;SDS011;2010;48.194;16.394;2023-06-22T15:01:06;6.83;;;5.60;;
3991;SDS011;2010;48.194;16.394;2023-06-22T15:03:35;7.57;;;5.67;;
3991;SDS011;2010;48.194;16.394;2023-06-22T15:06:12;12.77;;;6.07;;
3991;SDS011;2010;48.194;16.394;2023-06-22T15:08:46;8.17;;;5.77;;
3991;SDS011;2010;48.194;16.394;2023-06-22T15:11:15;12.37;;;6.27;;
3991;SDS011;2010;48.194;16.394;2023-06-22T15:13:49;10.17;;;6.20;;
3991;SDS011;2010;48.194;16.394;2023-06-22T15:16:23;14.20;;;5.80;;
3991;SDS011;2010;48.194;16.394;2023-06-22T15:19:01;10.30;;;6.57;;
3991;SDS011;2010;48.194;16.394;2023-06-22T15:21:45;13.53;;;5.63;;
3991;SDS011;2010;48.194;16.394;2023-06-22T15:24:18;12.93;;;6.20;;
3991;SDS011;2010;48.194;16.394;2023-06-22T15:26:54;10.73;;;5.80;;
3991;SDS011;2010;48.194;16.394;2023-06-22T15:29:23;9.20;;;5.63;;
3991;SDS011;2010;48.194;16.394;2023-06-22T15:31:56;10.20;;;6.60;;
3991;SDS011;2010;48.194;16.394;2023-06-22T15:34:32;11.73;;;6.33;;